Terminal Aerodrome Forecast
Issued by NWS Sioux Falls, SD

Home | Current Version | Previous Version | Graphics & Text | Print | Product List | Glossary Off
Versions: 1 2 3 4 5 6 7 8 9 10 11 12 13 14 15 16 17

922
FTUS43 KFSD 222343
TAFHON
TAF
KHON 222343Z 2300/2324 36013KT P6SM BKN015
     FM231100 02010KT P6SM OVC015
     FM231500 04011KT 5SM -SN OVC015
     FM231700 05012KT 2SM -SN OVC008=

USA.gov is the U.S. government's official web portal to all federal, state and local government web resources and services.